Nearby METAR Reports

 

EGKB - Biggin Hill, United Kingdom
Distance from station: S 5mi, 8km
Updated: 23/08/2014 10:20
Partly cloudy
Partly cloudy
 Wind from W
Wind: W 10 mph , 17 km/h
Temperature: 13°C
Dew Point: 7°C
Humidity: 67%
Barometer: 1015 hPa
Clouds: Partly cloudy
Visibility: 6 miles , 10 km
Cloud details: Partly cloudy 610 m
2014/08/23 09:20 EGKB 230920Z 27009KT 240V300 9999 SCT020 13/07 Q1015
EGLC - London City Airp, United Kingdom
Distance from station: NNE 8mi, 13km
Updated: 23/08/2014 10:20
Few Clouds
Few Clouds
 Wind from W
Wind: W 10 mph , 17 km/h
Temperature: 16°C
Dew Point: 7°C
Humidity: 55%
Barometer: 1015 hPa
Clouds: Few Clouds
Visibility: 6 miles , 10 km
Cloud details: Few Clouds 792 m
2014/08/23 09:20 EGLC 230920Z 26009KT 230V290 9999 FEW026 16/07 Q1015
 
EGKK - London/Gatwick A, United Kingdom
Distance from station: SSW 19mi, 31km
Updated: 23/08/2014 10:20
Few Clouds
Few Clouds
 Wind from W
Wind: W 9 mph , 15 km/h
Temperature: 15°C
Dew Point: 8°C
Humidity: 63%
Barometer: 1015 hPa
Clouds: Few Clouds
Visibility: 6 miles , 10 km
Cloud details: Few Clouds 853 m
2014/08/23 09:20 EGKK 230920Z 28008KT 9999 FEW028 15/08 Q1015
EGLL - London/Heathrow, United Kingdom
Distance from station: WNW 21mi, 33km
Updated: 23/08/2014 10:20
Few Clouds
Few Clouds
 Wind from W
Wind: W 13 mph , 20 km/h
Temperature: 15°C
Dew Point: 9°C
Humidity: 68%
Barometer: 1015 hPa
Clouds: Few Clouds
Visibility: 6 miles , 10 km
Cloud details: Few Clouds 853 m
2014/08/23 09:20 EGLL 230920Z 27011KT 9999 FEW028 15/09 Q1015